sensor_id;sensor_type;location;lat;lon;timestamp;P1;durP1;ratioP1;P2;durP2;ratioP2
40601;SDS011;26310;50.278;19.032;2023-03-16T00:03:15;7.37;;;4.80;;
40601;SDS011;26310;50.278;19.032;2023-03-16T00:08:21;11.23;;;4.90;;
40601;SDS011;26310;50.278;19.032;2023-03-16T00:13:24;5.13;;;4.43;;
40601;SDS011;26310;50.278;19.032;2023-03-16T00:18:28;7.13;;;4.17;;
40601;SDS011;26310;50.278;19.032;2023-03-16T00:23:31;7.20;;;5.37;;
40601;SDS011;26310;50.278;19.032;2023-03-16T00:28:36;4.37;;;3.63;;
40601;SDS011;26310;50.278;19.032;2023-03-16T05:35:36;10.40;;;6.13;;
40601;SDS011;26310;50.278;19.032;2023-03-16T05:40:39;14.00;;;8.60;;
40601;SDS011;26310;50.278;19.032;2023-03-16T05:45:42;12.30;;;7.13;;
40601;SDS011;26310;50.278;19.032;2023-03-16T05:50:45;11.43;;;7.57;;
40601;SDS011;26310;50.278;19.032;2023-03-16T05:55:51;16.13;;;7.73;;
40601;SDS011;26310;50.278;19.032;2023-03-16T06:00:54;10.37;;;9.10;;
40601;SDS011;26310;50.278;19.032;2023-03-16T06:06:02;11.77;;;6.47;;
40601;SDS011;26310;50.278;19.032;2023-03-16T06:11:05;12.87;;;7.70;;
40601;SDS011;26310;50.278;19.032;2023-03-16T06:16:08;16.07;;;9.93;;
40601;SDS011;26310;50.278;19.032;2023-03-16T06:21:14;14.97;;;7.47;;
40601;SDS011;26310;50.278;19.032;2023-03-16T06:26:17;10.60;;;7.63;;
40601;SDS011;26310;50.278;19.032;2023-03-16T06:31:20;15.13;;;8.97;;
40601;SDS011;26310;50.278;19.032;2023-03-16T06:36:23;17.87;;;9.17;;
40601;SDS011;26310;50.278;19.032;2023-03-16T06:41:25;17.43;;;9.10;;
40601;SDS011;26310;50.278;19.032;2023-03-16T06:46:28;12.67;;;8.00;;
40601;SDS011;26310;50.278;19.032;2023-03-16T06:51:33;18.93;;;9.97;;
40601;SDS011;26310;50.278;19.032;2023-03-16T06:56:36;27.93;;;8.20;;
40601;SDS011;26310;50.278;19.032;2023-03-16T07:01:39;13.17;;;8.57;;
40601;SDS011;26310;50.278;19.032;2023-03-16T07:06:42;10.03;;;7.63;;
40601;SDS011;26310;50.278;19.032;2023-03-16T07:11:46;10.03;;;7.23;;
40601;SDS011;26310;50.278;19.032;2023-03-16T07:16:49;7.40;;;6.63;;
40601;SDS011;26310;50.278;19.032;2023-03-16T07:21:53;12.10;;;8.57;;
40601;SDS011;26310;50.278;19.032;2023-03-16T07:26:57;14.93;;;8.63;;
40601;SDS011;26310;50.278;19.032;2023-03-16T07:32:01;11.20;;;7.67;;
40601;SDS011;26310;50.278;19.032;2023-03-16T07:37:07;16.60;;;8.33;;
40601;SDS011;26310;50.278;19.032;2023-03-16T07:42:17;11.17;;;7.20;;
40601;SDS011;26310;50.278;19.032;2023-03-16T07:47:21;7.67;;;6.70;;
40601;SDS011;26310;50.278;19.032;2023-03-16T07:52:29;12.97;;;7.43;;
40601;SDS011;26310;50.278;19.032;2023-03-16T07:57:32;15.13;;;9.20;;
40601;SDS011;26310;50.278;19.032;2023-03-16T08:02:36;16.13;;;8.63;;
40601;SDS011;26310;50.278;19.032;2023-03-16T08:07:39;13.37;;;7.50;;
40601;SDS011;26310;50.278;19.032;2023-03-16T08:12:42;15.30;;;9.97;;
40601;SDS011;26310;50.278;19.032;2023-03-16T08:17:48;14.10;;;8.27;;
40601;SDS011;26310;50.278;19.032;2023-03-16T08:22:51;15.40;;;8.43;;
40601;SDS011;26310;50.278;19.032;2023-03-16T08:27:54;11.40;;;7.90;;
40601;SDS011;26310;50.278;19.032;2023-03-16T08:32:59;12.20;;;7.07;;
40601;SDS011;26310;50.278;19.032;2023-03-16T08:38:04;12.40;;;8.37;;
40601;SDS011;26310;50.278;19.032;2023-03-16T08:43:08;11.53;;;8.50;;
40601;SDS011;26310;50.278;19.032;2023-03-16T08:48:12;11.23;;;7.33;;
40601;SDS011;26310;50.278;19.032;2023-03-16T08:53:15;8.03;;;6.37;;
40601;SDS011;26310;50.278;19.032;2023-03-16T08:58:24;15.10;;;7.93;;
40601;SDS011;26310;50.278;19.032;2023-03-16T09:03:28;16.67;;;7.37;;
40601;SDS011;26310;50.278;19.032;2023-03-16T09:08:32;9.57;;;5.70;;
40601;SDS011;26310;50.278;19.032;2023-03-16T09:13:36;12.70;;;6.37;;
40601;SDS011;26310;50.278;19.032;2023-03-16T09:18:43;7.50;;;5.20;;
40601;SDS011;26310;50.278;19.032;2023-03-16T09:23:47;7.00;;;4.47;;
40601;SDS011;26310;50.278;19.032;2023-03-16T09:28:51;8.57;;;5.03;;
40601;SDS011;26310;50.278;19.032;2023-03-16T09:33:56;5.00;;;4.50;;
40601;SDS011;26310;50.278;19.032;2023-03-16T09:39:00;9.53;;;4.33;;
40601;SDS011;26310;50.278;19.032;2023-03-16T09:44:09;5.27;;;3.63;;
40601;SDS011;26310;50.278;19.032;2023-03-16T09:49:39;5.13;;;2.97;;
40601;SDS011;26310;50.278;19.032;2023-03-16T09:54:52;5.40;;;2.90;;
40601;SDS011;26310;50.278;19.032;2023-03-16T10:00:25;4.90;;;3.73;;
40601;SDS011;26310;50.278;19.032;2023-03-16T10:05:32;3.90;;;3.10;;
40601;SDS011;26310;50.278;19.032;2023-03-16T10:15:55;4.97;;;2.97;;
40601;SDS011;26310;50.278;19.032;2023-03-16T10:21:12;3.53;;;3.23;;
40601;SDS011;26310;50.278;19.032;2023-03-16T10:26:29;2.40;;;2.20;;
40601;SDS011;26310;50.278;19.032;2023-03-16T10:31:39;3.83;;;2.20;;
40601;SDS011;26310;50.278;19.032;2023-03-16T10:36:46;4.10;;;2.40;;
40601;SDS011;26310;50.278;19.032;2023-03-16T10:41:54;3.67;;;2.60;;
40601;SDS011;26310;50.278;19.032;2023-03-16T10:47:05;4.80;;;2.67;;
40601;SDS011;26310;50.278;19.032;2023-03-16T10:52:22;2.17;;;1.97;;
40601;SDS011;26310;50.278;19.032;2023-03-16T10:57:30;4.27;;;2.67;;
40601;SDS011;26310;50.278;19.032;2023-03-16T11:02:36;6.70;;;2.57;;
40601;SDS011;26310;50.278;19.032;2023-03-16T11:07:50;2.20;;;1.83;;
40601;SDS011;26310;50.278;19.032;2023-03-16T11:13:05;4.70;;;2.90;;
40601;SDS011;26310;50.278;19.032;2023-03-16T11:18:21;3.50;;;2.40;;
40601;SDS011;26310;50.278;19.032;2023-03-16T11:23:39;6.10;;;2.00;;
40601;SDS011;26310;50.278;19.032;2023-03-16T11:28:54;2.23;;;1.90;;
40601;SDS011;26310;50.278;19.032;2023-03-16T11:34:12;3.00;;;2.40;;
40601;SDS011;26310;50.278;19.032;2023-03-16T11:39:32;2.80;;;2.17;;
40601;SDS011;26310;50.278;19.032;2023-03-16T12:01:29;2.03;;;1.80;;
40601;SDS011;26310;50.278;19.032;2023-03-16T12:11:50;2.50;;;1.90;;
40601;SDS011;26310;50.278;19.032;2023-03-16T12:17:03;1.50;;;1.40;;
40601;SDS011;26310;50.278;19.032;2023-03-16T12:22:13;2.73;;;1.60;;
40601;SDS011;26310;50.278;19.032;2023-03-16T12:27:25;3.60;;;1.87;;
40601;SDS011;26310;50.278;19.032;2023-03-16T12:32:45;2.13;;;1.23;;
40601;SDS011;26310;50.278;19.032;2023-03-16T12:49:07;5.17;;;1.83;;
40601;SDS011;26310;50.278;19.032;2023-03-16T12:54:17;2.70;;;2.10;;
40601;SDS011;26310;50.278;19.032;2023-03-16T12:59:25;3.30;;;1.87;;
40601;SDS011;26310;50.278;19.032;2023-03-16T13:04:46;2.90;;;1.90;;
40601;SDS011;26310;50.278;19.032;2023-03-16T13:10:04;3.00;;;2.23;;
40601;SDS011;26310;50.278;19.032;2023-03-16T13:20:28;4.03;;;1.67;;
40601;SDS011;26310;50.278;19.032;2023-03-16T13:25:40;3.67;;;1.70;;
40601;SDS011;26310;50.278;19.032;2023-03-16T13:30:46;4.13;;;2.20;;
40601;SDS011;26310;50.278;19.032;2023-03-16T13:35:50;2.17;;;1.80;;
40601;SDS011;26310;50.278;19.032;2023-03-16T13:41:02;3.33;;;1.60;;
40601;SDS011;26310;50.278;19.032;2023-03-16T13:46:17;4.33;;;1.83;;
40601;SDS011;26310;50.278;19.032;2023-03-16T13:51:23;5.60;;;1.93;;
40601;SDS011;26310;50.278;19.032;2023-03-16T13:56:27;1.50;;;1.40;;
40601;SDS011;26310;50.278;19.032;2023-03-16T14:01:33;2.53;;;1.30;;
40601;SDS011;26310;50.278;19.032;2023-03-16T14:06:36;1.93;;;1.20;;
40601;SDS011;26310;50.278;19.032;2023-03-16T14:11:40;4.00;;;1.77;;
40601;SDS011;26310;50.278;19.032;2023-03-16T14:16:45;2.47;;;1.83;;
40601;SDS011;26310;50.278;19.032;2023-03-16T14:21:47;2.57;;;2.30;;
40601;SDS011;26310;50.278;19.032;2023-03-16T14:26:50;4.90;;;1.70;;
40601;SDS011;26310;50.278;19.032;2023-03-16T14:31:53;5.50;;;2.53;;
40601;SDS011;26310;50.278;19.032;2023-03-16T14:37:13;3.83;;;2.00;;
40601;SDS011;26310;50.278;19.032;2023-03-16T14:42:22;1.93;;;1.53;;
40601;SDS011;26310;50.278;19.032;2023-03-16T14:47:38;2.50;;;1.53;;
40601;SDS011;26310;50.278;19.032;2023-03-16T14:52:43;1.80;;;1.40;;
40601;SDS011;26310;50.278;19.032;2023-03-16T14:57:47;3.43;;;1.57;;
40601;SDS011;26310;50.278;19.032;2023-03-16T15:08:12;2.77;;;2.13;;
40601;SDS011;26310;50.278;19.032;2023-03-16T15:13:20;4.90;;;1.97;;
40601;SDS011;26310;50.278;19.032;2023-03-16T15:18:43;6.43;;;2.27;;
40601;SDS011;26310;50.278;19.032;2023-03-16T15:23:45;2.60;;;1.77;;
40601;SDS011;26310;50.278;19.032;2023-03-16T15:28:48;1.50;;;1.30;;
40601;SDS011;26310;50.278;19.032;2023-03-16T15:33:51;1.70;;;1.20;;
40601;SDS011;26310;50.278;19.032;2023-03-16T15:38:54;1.93;;;1.40;;
40601;SDS011;26310;50.278;19.032;2023-03-16T15:43:57;1.50;;;1.40;;
40601;SDS011;26310;50.278;19.032;2023-03-16T15:49:02;2.63;;;1.83;;
40601;SDS011;26310;50.278;19.032;2023-03-16T15:54:05;3.37;;;2.17;;
40601;SDS011;26310;50.278;19.032;2023-03-16T15:59:10;5.43;;;2.30;;
40601;SDS011;26310;50.278;19.032;2023-03-16T16:04:17;3.30;;;1.30;;
40601;SDS011;26310;50.278;19.032;2023-03-16T16:09:22;2.97;;;2.07;;
40601;SDS011;26310;50.278;19.032;2023-03-16T16:14:26;3.70;;;1.67;;
40601;SDS011;26310;50.278;19.032;2023-03-16T16:19:29;4.20;;;1.73;;
40601;SDS011;26310;50.278;19.032;2023-03-16T16:24:34;3.47;;;2.37;;
40601;SDS011;26310;50.278;19.032;2023-03-16T16:29:38;7.60;;;2.40;;
40601;SDS011;26310;50.278;19.032;2023-03-16T16:34:41;7.83;;;2.73;;
40601;SDS011;26310;50.278;19.032;2023-03-16T16:39:55;4.83;;;2.77;;
40601;SDS011;26310;50.278;19.032;2023-03-16T16:44:58;2.97;;;2.00;;
40601;SDS011;26310;50.278;19.032;2023-03-16T16:50:01;4.47;;;2.30;;
40601;SDS011;26310;50.278;19.032;2023-03-16T16:55:11;4.20;;;2.87;;
40601;SDS011;26310;50.278;19.032;2023-03-16T17:05:25;5.70;;;2.73;;
40601;SDS011;26310;50.278;19.032;2023-03-16T17:10:29;6.97;;;3.07;;
40601;SDS011;26310;50.278;19.032;2023-03-16T17:15:33;6.80;;;4.57;;
40601;SDS011;26310;50.278;19.032;2023-03-16T17:20:37;14.83;;;5.93;;
40601;SDS011;26310;50.278;19.032;2023-03-16T17:25:41;8.67;;;5.73;;
40601;SDS011;26310;50.278;19.032;2023-03-16T17:30:44;6.93;;;4.27;;
40601;SDS011;26310;50.278;19.032;2023-03-16T17:35:50;10.30;;;4.97;;
40601;SDS011;26310;50.278;19.032;2023-03-16T17:40:53;10.80;;;4.77;;
40601;SDS011;26310;50.278;19.032;2023-03-16T17:45:57;8.83;;;5.77;;
40601;SDS011;26310;50.278;19.032;2023-03-16T17:51:00;13.17;;;7.07;;
40601;SDS011;26310;50.278;19.032;2023-03-16T17:56:08;10.33;;;6.77;;
40601;SDS011;26310;50.278;19.032;2023-03-16T18:01:23;15.00;;;8.83;;
40601;SDS011;26310;50.278;19.032;2023-03-16T18:06:30;10.40;;;6.90;;
40601;SDS011;26310;50.278;19.032;2023-03-16T18:11:33;17.10;;;8.57;;
40601;SDS011;26310;50.278;19.032;2023-03-16T18:16:38;12.03;;;5.60;;
40601;SDS011;26310;50.278;19.032;2023-03-16T18:21:41;6.43;;;5.30;;
40601;SDS011;26310;50.278;19.032;2023-03-16T18:26:48;9.70;;;6.23;;
40601;SDS011;26310;50.278;19.032;2023-03-16T18:31:51;14.17;;;6.57;;
40601;SDS011;26310;50.278;19.032;2023-03-16T18:36:55;20.23;;;10.53;;
40601;SDS011;26310;50.278;19.032;2023-03-16T18:42:01;19.13;;;9.43;;
40601;SDS011;26310;50.278;19.032;2023-03-16T18:47:07;27.17;;;10.97;;
40601;SDS011;26310;50.278;19.032;2023-03-16T18:52:22;31.13;;;11.57;;
40601;SDS011;26310;50.278;19.032;2023-03-16T18:57:27;22.50;;;11.63;;
40601;SDS011;26310;50.278;19.032;2023-03-16T19:02:34;18.47;;;10.10;;
40601;SDS011;26310;50.278;19.032;2023-03-16T19:07:43;13.47;;;10.03;;
40601;SDS011;26310;50.278;19.032;2023-03-16T19:12:48;18.70;;;9.80;;
40601;SDS011;26310;50.278;19.032;2023-03-16T19:17:52;14.43;;;10.10;;
40601;SDS011;26310;50.278;19.032;2023-03-16T19:23:02;20.63;;;10.27;;
40601;SDS011;26310;50.278;19.032;2023-03-16T19:28:11;17.13;;;9.40;;
40601;SDS011;26310;50.278;19.032;2023-03-16T19:33:23;17.70;;;10.03;;
40601;SDS011;26310;50.278;19.032;2023-03-16T19:38:26;20.17;;;10.00;;
40601;SDS011;26310;50.278;19.032;2023-03-16T19:43:29;19.43;;;9.87;;
40601;SDS011;26310;50.278;19.032;2023-03-16T19:48:32;17.37;;;9.97;;
40601;SDS011;26310;50.278;19.032;2023-03-16T19:53:35;14.17;;;8.03;;
40601;SDS011;26310;50.278;19.032;2023-03-16T19:58:38;14.90;;;8.40;;
40601;SDS011;26310;50.278;19.032;2023-03-16T20:03:44;13.13;;;8.70;;
40601;SDS011;26310;50.278;19.032;2023-03-16T20:08:48;13.80;;;8.43;;
40601;SDS011;26310;50.278;19.032;2023-03-16T20:13:51;11.63;;;7.13;;
40601;SDS011;26310;50.278;19.032;2023-03-16T20:18:56;12.57;;;7.67;;
40601;SDS011;26310;50.278;19.032;2023-03-16T20:24:01;12.83;;;7.60;;
40601;SDS011;26310;50.278;19.032;2023-03-16T20:29:04;19.93;;;7.93;;
40601;SDS011;26310;50.278;19.032;2023-03-16T20:34:19;15.90;;;7.97;;
40601;SDS011;26310;50.278;19.032;2023-03-16T20:39:23;12.37;;;6.67;;
40601;SDS011;26310;50.278;19.032;2023-03-16T20:44:27;12.87;;;8.37;;
40601;SDS011;26310;50.278;19.032;2023-03-16T20:49:30;16.07;;;8.17;;
40601;SDS011;26310;50.278;19.032;2023-03-16T20:54:34;18.70;;;8.40;;
40601;SDS011;26310;50.278;19.032;2023-03-16T20:59:37;19.53;;;11.53;;
40601;SDS011;26310;50.278;19.032;2023-03-16T21:04:40;26.33;;;12.63;;
40601;SDS011;26310;50.278;19.032;2023-03-16T21:09:44;27.93;;;13.20;;
40601;SDS011;26310;50.278;19.032;2023-03-16T21:14:51;33.33;;;16.60;;
40601;SDS011;26310;50.278;19.032;2023-03-16T21:19:54;15.83;;;11.03;;
40601;SDS011;26310;50.278;19.032;2023-03-16T21:24:57;26.43;;;11.00;;
40601;SDS011;26310;50.278;19.032;2023-03-16T21:30:03;19.57;;;11.33;;
40601;SDS011;26310;50.278;19.032;2023-03-16T21:35:12;30.80;;;11.77;;
40601;SDS011;26310;50.278;19.032;2023-03-16T21:40:19;15.23;;;10.63;;
40601;SDS011;26310;50.278;19.032;2023-03-16T21:45:23;12.93;;;8.70;;
40601;SDS011;26310;50.278;19.032;2023-03-16T21:50:33;24.70;;;13.43;;
40601;SDS011;26310;50.278;19.032;2023-03-16T21:55:37;33.23;;;18.20;;
40601;SDS011;26310;50.278;19.032;2023-03-16T22:00:40;34.87;;;17.93;;
40601;SDS011;26310;50.278;19.032;2023-03-16T22:05:43;41.37;;;18.77;;
40601;SDS011;26310;50.278;19.032;2023-03-16T22:10:45;13.60;;;9.70;;
40601;SDS011;26310;50.278;19.032;2023-03-16T22:15:49;26.67;;;11.00;;
40601;SDS011;26310;50.278;19.032;2023-03-16T22:20:53;21.73;;;10.07;;
40601;SDS011;26310;50.278;19.032;2023-03-16T22:25:57;35.70;;;11.23;;
40601;SDS011;26310;50.278;19.032;2023-03-16T22:31:01;21.10;;;12.37;;
40601;SDS011;26310;50.278;19.032;2023-03-16T22:36:05;19.67;;;11.50;;
40601;SDS011;26310;50.278;19.032;2023-03-16T22:41:13;20.63;;;10.17;;
40601;SDS011;26310;50.278;19.032;2023-03-16T22:46:19;21.37;;;12.43;;
40601;SDS011;26310;50.278;19.032;2023-03-16T22:51:28;23.30;;;13.67;;
40601;SDS011;26310;50.278;19.032;2023-03-16T22:56:34;27.60;;;12.33;;
40601;SDS011;26310;50.278;19.032;2023-03-16T23:01:38;23.77;;;12.07;;
40601;SDS011;26310;50.278;19.032;2023-03-16T23:06:43;27.03;;;12.10;;
40601;SDS011;26310;50.278;19.032;2023-03-16T23:11:51;25.27;;;11.73;;
40601;SDS011;26310;50.278;19.032;2023-03-16T23:16:55;42.37;;;20.00;;
40601;SDS011;26310;50.278;19.032;2023-03-16T23:21:59;39.53;;;21.17;;
40601;SDS011;26310;50.278;19.032;2023-03-16T23:27:05;41.10;;;21.93;;
40601;SDS011;26310;50.278;19.032;2023-03-16T23:32:18;45.70;;;22.80;;
40601;SDS011;26310;50.278;19.032;2023-03-16T23:37:21;42.57;;;21.50;;
40601;SDS011;26310;50.278;19.032;2023-03-16T23:42:23;51.53;;;24.13;;
40601;SDS011;26310;50.278;19.032;2023-03-16T23:47:26;49.20;;;27.13;;
40601;SDS011;26310;50.278;19.032;2023-03-16T23:52:29;41.37;;;21.80;;
40601;SDS011;26310;50.278;19.032;2023-03-16T23:57:32;59.07;;;29.10;;
